sensor_id;sensor_type;location;lat;lon;timestamp;P1;durP1;ratioP1;P2;durP2;ratioP2
66946;SDS011;53853;51.982;5.928;2022-12-26T00:01:20;17.45;;;13.75;;
66946;SDS011;53853;51.982;5.928;2022-12-26T00:03:52;16.20;;;13.13;;
66946;SDS011;53853;51.982;5.928;2022-12-26T00:06:23;20.75;;;14.98;;
66946;SDS011;53853;51.982;5.928;2022-12-26T00:08:55;13.80;;;12.00;;
66946;SDS011;53853;51.982;5.928;2022-12-26T00:11:26;14.95;;;11.95;;
66946;SDS011;53853;51.982;5.928;2022-12-26T00:13:57;17.55;;;14.65;;
66946;SDS011;53853;51.982;5.928;2022-12-26T00:16:31;15.85;;;12.85;;
66946;SDS011;53853;51.982;5.928;2022-12-26T00:19:02;27.17;;;17.90;;
66946;SDS011;53853;51.982;5.928;2022-12-26T00:21:32;19.33;;;14.90;;
66946;SDS011;53853;51.982;5.928;2022-12-26T00:24:03;21.20;;;14.23;;
66946;SDS011;53853;51.982;5.928;2022-12-26T00:26:33;19.77;;;15.18;;
66946;SDS011;53853;51.982;5.928;2022-12-26T00:29:03;30.98;;;18.92;;
66946;SDS011;53853;51.982;5.928;2022-12-26T00:31:36;22.80;;;15.95;;
66946;SDS011;53853;51.982;5.928;2022-12-26T00:34:06;24.10;;;17.35;;
66946;SDS011;53853;51.982;5.928;2022-12-26T00:36:37;29.95;;;18.90;;
66946;SDS011;53853;51.982;5.928;2022-12-26T00:39:07;32.83;;;20.58;;
66946;SDS011;53853;51.982;5.928;2022-12-26T00:41:37;31.52;;;18.60;;
66946;SDS011;53853;51.982;5.928;2022-12-26T00:44:07;29.52;;;19.65;;
66946;SDS011;53853;51.982;5.928;2022-12-26T00:46:40;37.00;;;21.55;;
66946;SDS011;53853;51.982;5.928;2022-12-26T00:49:10;39.83;;;21.98;;
66946;SDS011;53853;51.982;5.928;2022-12-26T00:51:39;34.78;;;21.02;;
66946;SDS011;53853;51.982;5.928;2022-12-26T00:54:09;27.20;;;19.13;;
66946;SDS011;53853;51.982;5.928;2022-12-26T00:56:39;23.58;;;16.30;;
66946;SDS011;53853;51.982;5.928;2022-12-26T00:59:09;25.80;;;18.63;;
66946;SDS011;53853;51.982;5.928;2022-12-26T01:01:42;21.58;;;15.70;;
66946;SDS011;53853;51.982;5.928;2022-12-26T01:04:12;21.88;;;15.38;;
66946;SDS011;53853;51.982;5.928;2022-12-26T01:06:42;20.63;;;15.52;;
66946;SDS011;53853;51.982;5.928;2022-12-26T01:09:12;23.50;;;18.75;;
66946;SDS011;53853;51.982;5.928;2022-12-26T01:11:42;25.00;;;18.80;;
66946;SDS011;53853;51.982;5.928;2022-12-26T01:14:12;28.30;;;21.88;;
66946;SDS011;53853;51.982;5.928;2022-12-26T01:16:47;23.73;;;19.05;;
66946;SDS011;53853;51.982;5.928;2022-12-26T01:19:17;19.90;;;16.63;;
66946;SDS011;53853;51.982;5.928;2022-12-26T01:21:46;23.52;;;18.27;;
66946;SDS011;53853;51.982;5.928;2022-12-26T01:24:16;24.70;;;19.15;;
66946;SDS011;53853;51.982;5.928;2022-12-26T01:26:46;26.50;;;21.05;;
66946;SDS011;53853;51.982;5.928;2022-12-26T01:29:16;23.30;;;17.83;;
66946;SDS011;53853;51.982;5.928;2022-12-26T01:31:49;23.65;;;18.40;;
66946;SDS011;53853;51.982;5.928;2022-12-26T01:34:19;23.30;;;18.92;;
66946;SDS011;53853;51.982;5.928;2022-12-26T01:36:50;21.05;;;16.50;;
66946;SDS011;53853;51.982;5.928;2022-12-26T01:39:20;24.42;;;18.55;;
66946;SDS011;53853;51.982;5.928;2022-12-26T01:41:51;26.98;;;20.40;;
66946;SDS011;53853;51.982;5.928;2022-12-26T01:47:24;24.63;;;18.95;;
66946;SDS011;53853;51.982;5.928;2022-12-26T01:50:04;21.13;;;16.60;;
66946;SDS011;53853;51.982;5.928;2022-12-26T01:52:44;20.98;;;17.23;;
66946;SDS011;53853;51.982;5.928;2022-12-26T01:55:16;20.60;;;16.02;;
66946;SDS011;53853;51.982;5.928;2022-12-26T01:57:52;17.48;;;14.52;;
66946;SDS011;53853;51.982;5.928;2022-12-26T02:00:25;19.38;;;16.50;;
66946;SDS011;53853;51.982;5.928;2022-12-26T02:02:58;21.27;;;16.63;;
66946;SDS011;53853;51.982;5.928;2022-12-26T02:05:41;15.40;;;13.00;;
66946;SDS011;53853;51.982;5.928;2022-12-26T02:10:42;20.55;;;15.93;;
66946;SDS011;53853;51.982;5.928;2022-12-26T02:13:16;20.05;;;16.10;;
66946;SDS011;53853;51.982;5.928;2022-12-26T02:15:47;21.20;;;17.58;;
66946;SDS011;53853;51.982;5.928;2022-12-26T02:18:19;18.58;;;15.73;;
66946;SDS011;53853;51.982;5.928;2022-12-26T02:20:52;16.52;;;14.32;;
66946;SDS011;53853;51.982;5.928;2022-12-26T02:29:53;21.10;;;16.42;;
66946;SDS011;53853;51.982;5.928;2022-12-26T02:35:38;23.83;;;19.52;;
66946;SDS011;53853;51.982;5.928;2022-12-26T02:38:25;19.15;;;15.45;;
66946;SDS011;53853;51.982;5.928;2022-12-26T02:41:07;15.70;;;14.00;;
66946;SDS011;53853;51.982;5.928;2022-12-26T02:43:47;18.27;;;15.82;;
66946;SDS011;53853;51.982;5.928;2022-12-26T02:46:48;27.05;;;20.27;;
66946;SDS011;53853;51.982;5.928;2022-12-26T02:49:31;23.13;;;19.27;;
66946;SDS011;53853;51.982;5.928;2022-12-26T02:52:26;19.02;;;17.00;;
66946;SDS011;53853;51.982;5.928;2022-12-26T02:55:16;18.13;;;16.05;;
66946;SDS011;53853;51.982;5.928;2022-12-26T02:58:03;21.80;;;18.63;;
66946;SDS011;53853;51.982;5.928;2022-12-26T03:00:47;21.35;;;18.98;;
66946;SDS011;53853;51.982;5.928;2022-12-26T03:03:37;23.75;;;20.67;;
66946;SDS011;53853;51.982;5.928;2022-12-26T03:06:25;20.90;;;17.95;;
66946;SDS011;53853;51.982;5.928;2022-12-26T03:09:12;21.10;;;18.83;;
66946;SDS011;53853;51.982;5.928;2022-12-26T03:12:00;16.85;;;15.05;;
66946;SDS011;53853;51.982;5.928;2022-12-26T03:14:47;21.13;;;18.95;;
66946;SDS011;53853;51.982;5.928;2022-12-26T03:17:25;20.52;;;18.33;;
66946;SDS011;53853;51.982;5.928;2022-12-26T03:19:57;16.88;;;15.00;;
66946;SDS011;53853;51.982;5.928;2022-12-26T03:22:36;18.48;;;16.48;;
66946;SDS011;53853;51.982;5.928;2022-12-26T03:25:11;16.55;;;14.10;;
66946;SDS011;53853;51.982;5.928;2022-12-26T03:27:57;16.35;;;14.57;;
66946;SDS011;53853;51.982;5.928;2022-12-26T03:30:28;17.55;;;14.95;;
66946;SDS011;53853;51.982;5.928;2022-12-26T03:33:10;16.52;;;14.52;;
66946;SDS011;53853;51.982;5.928;2022-12-26T03:35:53;20.67;;;18.33;;
66946;SDS011;53853;51.982;5.928;2022-12-26T03:38:26;15.60;;;13.95;;
66946;SDS011;53853;51.982;5.928;2022-12-26T03:41:05;16.50;;;14.68;;
66946;SDS011;53853;51.982;5.928;2022-12-26T03:43:57;23.77;;;19.38;;
66946;SDS011;53853;51.982;5.928;2022-12-26T03:46:52;22.45;;;19.65;;
66946;SDS011;53853;51.982;5.928;2022-12-26T03:49:45;16.13;;;14.43;;
66946;SDS011;53853;51.982;5.928;2022-12-26T03:52:37;16.63;;;14.88;;
66946;SDS011;53853;51.982;5.928;2022-12-26T03:55:31;23.67;;;20.80;;
66946;SDS011;53853;51.982;5.928;2022-12-26T03:58:18;19.13;;;16.90;;
66946;SDS011;53853;51.982;5.928;2022-12-26T04:01:07;22.60;;;20.20;;
66946;SDS011;53853;51.982;5.928;2022-12-26T04:03:55;21.80;;;19.50;;
66946;SDS011;53853;51.982;5.928;2022-12-26T04:06:43;26.02;;;23.20;;
66946;SDS011;53853;51.982;5.928;2022-12-26T04:09:31;26.20;;;23.17;;
66946;SDS011;53853;51.982;5.928;2022-12-26T04:12:21;22.63;;;19.85;;
66946;SDS011;53853;51.982;5.928;2022-12-26T04:15:10;24.67;;;21.95;;
66946;SDS011;53853;51.982;5.928;2022-12-26T04:18:00;30.13;;;24.52;;
66946;SDS011;53853;51.982;5.928;2022-12-26T04:20:48;25.50;;;21.38;;
66946;SDS011;53853;51.982;5.928;2022-12-26T04:23:26;24.42;;;20.10;;
66946;SDS011;53853;51.982;5.928;2022-12-26T04:26:26;22.10;;;19.63;;
66946;SDS011;53853;51.982;5.928;2022-12-26T04:29:17;27.77;;;24.85;;
66946;SDS011;53853;51.982;5.928;2022-12-26T04:32:01;28.67;;;24.80;;
66946;SDS011;53853;51.982;5.928;2022-12-26T04:34:50;27.05;;;24.13;;
66946;SDS011;53853;51.982;5.928;2022-12-26T04:37:38;27.15;;;24.23;;
66946;SDS011;53853;51.982;5.928;2022-12-26T04:40:24;28.55;;;23.83;;
66946;SDS011;53853;51.982;5.928;2022-12-26T04:43:10;24.45;;;21.85;;
66946;SDS011;53853;51.982;5.928;2022-12-26T04:45:57;26.40;;;23.05;;
66946;SDS011;53853;51.982;5.928;2022-12-26T04:48:27;26.98;;;23.30;;
66946;SDS011;53853;51.982;5.928;2022-12-26T04:51:10;25.75;;;23.10;;
66946;SDS011;53853;51.982;5.928;2022-12-26T04:53:40;24.58;;;22.00;;
66946;SDS011;53853;51.982;5.928;2022-12-26T04:56:10;23.25;;;20.92;;
66946;SDS011;53853;51.982;5.928;2022-12-26T04:58:42;21.80;;;19.60;;
66946;SDS011;53853;51.982;5.928;2022-12-26T05:01:15;24.13;;;21.63;;
66946;SDS011;53853;51.982;5.928;2022-12-26T05:03:57;23.65;;;21.25;;
66946;SDS011;53853;51.982;5.928;2022-12-26T05:06:40;21.90;;;19.58;;
66946;SDS011;53853;51.982;5.928;2022-12-26T05:09:22;22.85;;;20.52;;
66946;SDS011;53853;51.982;5.928;2022-12-26T05:12:05;18.80;;;17.00;;
66946;SDS011;53853;51.982;5.928;2022-12-26T05:14:36;18.35;;;16.45;;
66946;SDS011;53853;51.982;5.928;2022-12-26T05:17:09;20.02;;;18.02;;
66946;SDS011;53853;51.982;5.928;2022-12-26T05:19:53;20.77;;;18.67;;
66946;SDS011;53853;51.982;5.928;2022-12-26T05:22:36;19.40;;;17.30;;
66946;SDS011;53853;51.982;5.928;2022-12-26T05:25:21;15.85;;;14.02;;
66946;SDS011;53853;51.982;5.928;2022-12-26T05:28:06;14.88;;;13.38;;
66946;SDS011;53853;51.982;5.928;2022-12-26T05:30:50;15.93;;;14.32;;
66946;SDS011;53853;51.982;5.928;2022-12-26T05:33:23;15.13;;;13.57;;
66946;SDS011;53853;51.982;5.928;2022-12-26T05:36:05;12.98;;;11.68;;
66946;SDS011;53853;51.982;5.928;2022-12-26T05:38:35;14.30;;;12.93;;
66946;SDS011;53853;51.982;5.928;2022-12-26T05:41:05;14.85;;;13.07;;
66946;SDS011;53853;51.982;5.928;2022-12-26T05:43:35;11.73;;;10.63;;
66946;SDS011;53853;51.982;5.928;2022-12-26T05:46:05;12.32;;;11.13;;
66946;SDS011;53853;51.982;5.928;2022-12-26T05:48:38;10.88;;;9.77;;
66946;SDS011;53853;51.982;5.928;2022-12-26T05:51:08;12.05;;;10.95;;
66946;SDS011;53853;51.982;5.928;2022-12-26T05:53:38;10.80;;;9.70;;
66946;SDS011;53853;51.982;5.928;2022-12-26T05:56:09;9.93;;;8.93;;
66946;SDS011;53853;51.982;5.928;2022-12-26T05:58:40;8.40;;;7.43;;
66946;SDS011;53853;51.982;5.928;2022-12-26T06:01:11;10.07;;;7.88;;
66946;SDS011;53853;51.982;5.928;2022-12-26T06:03:48;9.53;;;7.53;;
66946;SDS011;53853;51.982;5.928;2022-12-26T06:06:19;8.45;;;6.35;;
66946;SDS011;53853;51.982;5.928;2022-12-26T06:08:50;8.13;;;7.30;;
66946;SDS011;53853;51.982;5.928;2022-12-26T06:11:21;7.50;;;5.40;;
66946;SDS011;53853;51.982;5.928;2022-12-26T06:13:52;7.68;;;5.57;;
66946;SDS011;53853;51.982;5.928;2022-12-26T06:16:23;7.57;;;5.53;;
66946;SDS011;53853;51.982;5.928;2022-12-26T06:18:56;6.90;;;6.20;;
66946;SDS011;53853;51.982;5.928;2022-12-26T06:21:26;8.95;;;6.68;;
66946;SDS011;53853;51.982;5.928;2022-12-26T06:23:56;7.47;;;6.60;;
66946;SDS011;53853;51.982;5.928;2022-12-26T06:26:26;5.78;;;5.05;;
66946;SDS011;53853;51.982;5.928;2022-12-26T06:28:55;6.30;;;5.10;;
66946;SDS011;53853;51.982;5.928;2022-12-26T06:31:25;6.15;;;5.22;;
66946;SDS011;53853;51.982;5.928;2022-12-26T06:33:58;6.45;;;5.35;;
66946;SDS011;53853;51.982;5.928;2022-12-26T06:36:28;8.68;;;7.03;;
66946;SDS011;53853;51.982;5.928;2022-12-26T06:38:58;7.47;;;6.57;;
66946;SDS011;53853;51.982;5.928;2022-12-26T06:41:28;7.07;;;6.38;;
66946;SDS011;53853;51.982;5.928;2022-12-26T06:43:58;6.88;;;5.93;;
66946;SDS011;53853;51.982;5.928;2022-12-26T06:46:28;6.68;;;5.97;;
66946;SDS011;53853;51.982;5.928;2022-12-26T06:49:01;9.00;;;6.15;;
66946;SDS011;53853;51.982;5.928;2022-12-26T06:51:31;6.57;;;5.00;;
66946;SDS011;53853;51.982;5.928;2022-12-26T06:54:01;9.48;;;5.32;;
66946;SDS011;53853;51.982;5.928;2022-12-26T06:56:31;8.02;;;6.20;;
66946;SDS011;53853;51.982;5.928;2022-12-26T06:59:02;7.80;;;6.35;;
66946;SDS011;53853;51.982;5.928;2022-12-26T07:01:34;7.05;;;6.10;;
66946;SDS011;53853;51.982;5.928;2022-12-26T07:04:06;6.82;;;6.13;;
66946;SDS011;53853;51.982;5.928;2022-12-26T07:06:37;9.73;;;7.07;;
66946;SDS011;53853;51.982;5.928;2022-12-26T07:09:08;7.97;;;6.95;;
66946;SDS011;53853;51.982;5.928;2022-12-26T07:11:40;8.38;;;7.45;;
66946;SDS011;53853;51.982;5.928;2022-12-26T07:14:11;9.82;;;7.40;;
66946;SDS011;53853;51.982;5.928;2022-12-26T07:16:42;8.35;;;7.35;;
66946;SDS011;53853;51.982;5.928;2022-12-26T07:19:15;9.68;;;8.50;;
66946;SDS011;53853;51.982;5.928;2022-12-26T07:21:45;7.03;;;5.93;;
66946;SDS011;53853;51.982;5.928;2022-12-26T07:24:16;10.07;;;8.38;;
66946;SDS011;53853;51.982;5.928;2022-12-26T07:26:48;12.80;;;8.00;;
66946;SDS011;53853;51.982;5.928;2022-12-26T07:29:18;8.63;;;7.03;;
66946;SDS011;53853;51.982;5.928;2022-12-26T07:31:48;8.02;;;7.07;;
66946;SDS011;53853;51.982;5.928;2022-12-26T07:34:20;8.95;;;7.50;;
66946;SDS011;53853;51.982;5.928;2022-12-26T07:36:51;7.20;;;6.10;;
66946;SDS011;53853;51.982;5.928;2022-12-26T07:39:21;9.23;;;7.38;;
66946;SDS011;53853;51.982;5.928;2022-12-26T07:41:51;9.23;;;7.93;;
66946;SDS011;53853;51.982;5.928;2022-12-26T07:44:27;10.38;;;6.70;;
66946;SDS011;53853;51.982;5.928;2022-12-26T07:46:58;7.15;;;6.45;;
66946;SDS011;53853;51.982;5.928;2022-12-26T07:49:31;9.18;;;7.30;;
66946;SDS011;53853;51.982;5.928;2022-12-26T07:52:01;11.00;;;7.43;;
66946;SDS011;53853;51.982;5.928;2022-12-26T07:54:31;10.35;;;7.45;;
66946;SDS011;53853;51.982;5.928;2022-12-26T07:57:01;8.23;;;7.00;;
66946;SDS011;53853;51.982;5.928;2022-12-26T07:59:31;7.70;;;6.90;;
66946;SDS011;53853;51.982;5.928;2022-12-26T08:02:01;7.13;;;5.72;;
66946;SDS011;53853;51.982;5.928;2022-12-26T08:04:35;6.75;;;5.28;;
66946;SDS011;53853;51.982;5.928;2022-12-26T08:07:05;7.45;;;5.65;;
66946;SDS011;53853;51.982;5.928;2022-12-26T08:09:35;10.32;;;6.35;;
66946;SDS011;53853;51.982;5.928;2022-12-26T08:12:07;10.63;;;6.68;;
66946;SDS011;53853;51.982;5.928;2022-12-26T08:14:38;7.20;;;5.32;;
66946;SDS011;53853;51.982;5.928;2022-12-26T08:17:08;8.40;;;5.03;;
66946;SDS011;53853;51.982;5.928;2022-12-26T08:19:41;5.25;;;4.75;;
66946;SDS011;53853;51.982;5.928;2022-12-26T08:22:12;6.25;;;3.60;;
66946;SDS011;53853;51.982;5.928;2022-12-26T08:24:42;7.95;;;5.20;;
66946;SDS011;53853;51.982;5.928;2022-12-26T08:27:11;5.60;;;4.05;;
66946;SDS011;53853;51.982;5.928;2022-12-26T08:29:41;5.63;;;4.43;;
66946;SDS011;53853;51.982;5.928;2022-12-26T08:32:11;7.40;;;4.53;;
66946;SDS011;53853;51.982;5.928;2022-12-26T08:34:44;9.60;;;4.55;;
66946;SDS011;53853;51.982;5.928;2022-12-26T08:37:14;6.93;;;3.95;;
66946;SDS011;53853;51.982;5.928;2022-12-26T08:39:44;6.63;;;3.83;;
66946;SDS011;53853;51.982;5.928;2022-12-26T08:42:14;5.55;;;4.32;;
66946;SDS011;53853;51.982;5.928;2022-12-26T08:44:44;8.15;;;3.90;;
66946;SDS011;53853;51.982;5.928;2022-12-26T08:47:14;5.05;;;3.47;;
66946;SDS011;53853;51.982;5.928;2022-12-26T08:49:46;4.95;;;3.60;;
66946;SDS011;53853;51.982;5.928;2022-12-26T08:52:16;7.65;;;4.20;;
66946;SDS011;53853;51.982;5.928;2022-12-26T08:54:46;8.23;;;4.40;;
66946;SDS011;53853;51.982;5.928;2022-12-26T08:57:16;6.22;;;4.00;;
66946;SDS011;53853;51.982;5.928;2022-12-26T08:59:48;3.97;;;3.10;;
66946;SDS011;53853;51.982;5.928;2022-12-26T09:02:18;7.30;;;4.25;;
66946;SDS011;53853;51.982;5.928;2022-12-26T09:04:51;6.63;;;3.10;;
66946;SDS011;53853;51.982;5.928;2022-12-26T09:07:20;5.10;;;3.20;;
66946;SDS011;53853;51.982;5.928;2022-12-26T09:09:50;5.88;;;3.28;;
66946;SDS011;53853;51.982;5.928;2022-12-26T09:12:20;5.10;;;3.22;;
66946;SDS011;53853;51.982;5.928;2022-12-26T09:14:50;4.88;;;2.88;;
66946;SDS011;53853;51.982;5.928;2022-12-26T09:17:20;9.35;;;3.53;;
66946;SDS011;53853;51.982;5.928;2022-12-26T09:19:55;5.43;;;3.08;;
66946;SDS011;53853;51.982;5.928;2022-12-26T09:22:25;5.72;;;2.97;;
66946;SDS011;53853;51.982;5.928;2022-12-26T09:25:07;6.80;;;2.72;;
66946;SDS011;53853;51.982;5.928;2022-12-26T09:27:37;5.43;;;2.90;;
66946;SDS011;53853;51.982;5.928;2022-12-26T09:30:07;8.52;;;3.22;;
66946;SDS011;53853;51.982;5.928;2022-12-26T09:32:38;6.47;;;3.13;;
66946;SDS011;53853;51.982;5.928;2022-12-26T09:35:10;4.93;;;2.80;;
66946;SDS011;53853;51.982;5.928;2022-12-26T09:37:40;7.00;;;2.95;;
66946;SDS011;53853;51.982;5.928;2022-12-26T09:40:17;6.25;;;3.15;;
66946;SDS011;53853;51.982;5.928;2022-12-26T09:42:54;6.68;;;3.70;;
66946;SDS011;53853;51.982;5.928;2022-12-26T09:45:40;6.75;;;2.90;;
66946;SDS011;53853;51.982;5.928;2022-12-26T09:48:20;4.55;;;2.40;;
66946;SDS011;53853;51.982;5.928;2022-12-26T09:50:58;7.78;;;3.33;;
66946;SDS011;53853;51.982;5.928;2022-12-26T09:53:31;7.43;;;3.70;;
66946;SDS011;53853;51.982;5.928;2022-12-26T09:56:05;4.43;;;2.75;;
66946;SDS011;53853;51.982;5.928;2022-12-26T09:58:40;4.20;;;2.30;;
66946;SDS011;53853;51.982;5.928;2022-12-26T10:01:14;8.50;;;3.45;;
66946;SDS011;53853;51.982;5.928;2022-12-26T10:03:46;8.20;;;2.72;;
66946;SDS011;53853;51.982;5.928;2022-12-26T10:06:21;7.30;;;3.20;;
66946;SDS011;53853;51.982;5.928;2022-12-26T10:11:57;6.00;;;3.30;;
66946;SDS011;53853;51.982;5.928;2022-12-26T10:14:39;11.77;;;3.75;;
66946;SDS011;53853;51.982;5.928;2022-12-26T10:17:20;5.47;;;2.78;;
66946;SDS011;53853;51.982;5.928;2022-12-26T10:20:01;6.80;;;3.13;;
66946;SDS011;53853;51.982;5.928;2022-12-26T10:22:54;8.57;;;2.75;;
66946;SDS011;53853;51.982;5.928;2022-12-26T10:25:39;6.28;;;2.95;;
66946;SDS011;53853;51.982;5.928;2022-12-26T10:28:26;9.05;;;2.50;;
66946;SDS011;53853;51.982;5.928;2022-12-26T10:31:05;7.35;;;3.30;;
66946;SDS011;53853;51.982;5.928;2022-12-26T10:33:42;9.90;;;2.03;;
66946;SDS011;53853;51.982;5.928;2022-12-26T10:36:20;10.63;;;2.97;;
66946;SDS011;53853;51.982;5.928;2022-12-26T10:38:58;9.45;;;3.03;;
66946;SDS011;53853;51.982;5.928;2022-12-26T10:41:33;14.77;;;3.20;;
66946;SDS011;53853;51.982;5.928;2022-12-26T10:44:09;6.97;;;2.17;;
66946;SDS011;53853;51.982;5.928;2022-12-26T10:46:46;6.75;;;2.88;;
66946;SDS011;53853;51.982;5.928;2022-12-26T10:49:33;7.70;;;2.75;;
66946;SDS011;53853;51.982;5.928;2022-12-26T10:52:04;8.50;;;2.80;;
66946;SDS011;53853;51.982;5.928;2022-12-26T10:54:37;10.02;;;2.80;;
66946;SDS011;53853;51.982;5.928;2022-12-26T10:57:07;9.65;;;2.60;;
66946;SDS011;53853;51.982;5.928;2022-12-26T10:59:39;6.57;;;2.35;;
66946;SDS011;53853;51.982;5.928;2022-12-26T11:02:13;15.43;;;3.75;;
66946;SDS011;53853;51.982;5.928;2022-12-26T11:04:57;12.82;;;2.80;;
66946;SDS011;53853;51.982;5.928;2022-12-26T11:07:35;11.27;;;2.97;;
66946;SDS011;53853;51.982;5.928;2022-12-26T11:10:16;10.95;;;3.67;;
66946;SDS011;53853;51.982;5.928;2022-12-26T11:12:48;12.20;;;2.90;;
66946;SDS011;53853;51.982;5.928;2022-12-26T11:15:22;14.02;;;3.45;;
66946;SDS011;53853;51.982;5.928;2022-12-26T11:18:05;10.57;;;2.50;;
66946;SDS011;53853;51.982;5.928;2022-12-26T11:20:41;9.48;;;2.80;;
66946;SDS011;53853;51.982;5.928;2022-12-26T11:23:23;9.88;;;2.80;;
66946;SDS011;53853;51.982;5.928;2022-12-26T11:25:59;13.10;;;3.78;;
66946;SDS011;53853;51.982;5.928;2022-12-26T11:28:30;6.75;;;3.17;;
66946;SDS011;53853;51.982;5.928;2022-12-26T11:31:02;10.73;;;2.83;;
66946;SDS011;53853;51.982;5.928;2022-12-26T11:33:34;7.38;;;2.65;;
66946;SDS011;53853;51.982;5.928;2022-12-26T11:36:10;9.57;;;2.40;;
66946;SDS011;53853;51.982;5.928;2022-12-26T11:38:49;12.95;;;3.15;;
66946;SDS011;53853;51.982;5.928;2022-12-26T11:41:37;12.30;;;2.80;;
66946;SDS011;53853;51.982;5.928;2022-12-26T11:44:15;15.80;;;3.83;;
66946;SDS011;53853;51.982;5.928;2022-12-26T11:46:52;8.60;;;2.58;;
66946;SDS011;53853;51.982;5.928;2022-12-26T11:49:28;11.27;;;2.35;;
66946;SDS011;53853;51.982;5.928;2022-12-26T11:52:02;6.40;;;2.13;;
66946;SDS011;53853;51.982;5.928;2022-12-26T11:54:56;8.32;;;3.05;;
66946;SDS011;53853;51.982;5.928;2022-12-26T11:57:29;13.95;;;3.47;;
66946;SDS011;53853;51.982;5.928;2022-12-26T12:02:42;11.40;;;3.33;;
66946;SDS011;53853;51.982;5.928;2022-12-26T12:05:14;5.10;;;1.55;;
66946;SDS011;53853;51.982;5.928;2022-12-26T12:08:06;7.18;;;2.60;;
66946;SDS011;53853;51.982;5.928;2022-12-26T12:13:59;9.00;;;2.45;;
66946;SDS011;53853;51.982;5.928;2022-12-26T12:16:43;11.27;;;2.45;;
66946;SDS011;53853;51.982;5.928;2022-12-26T12:19:26;8.48;;;3.20;;
66946;SDS011;53853;51.982;5.928;2022-12-26T12:22:13;11.30;;;3.38;;
66946;SDS011;53853;51.982;5.928;2022-12-26T12:25:06;7.22;;;2.90;;
66946;SDS011;53853;51.982;5.928;2022-12-26T12:27:55;7.88;;;2.15;;
66946;SDS011;53853;51.982;5.928;2022-12-26T12:30:37;6.68;;;2.20;;
66946;SDS011;53853;51.982;5.928;2022-12-26T12:33:18;10.75;;;2.70;;
66946;SDS011;53853;51.982;5.928;2022-12-26T12:36:02;9.25;;;2.20;;
66946;SDS011;53853;51.982;5.928;2022-12-26T12:38:48;8.15;;;2.50;;
66946;SDS011;53853;51.982;5.928;2022-12-26T12:41:39;7.75;;;2.03;;
66946;SDS011;53853;51.982;5.928;2022-12-26T12:44:29;6.45;;;1.98;;
66946;SDS011;53853;51.982;5.928;2022-12-26T12:47:18;6.00;;;1.80;;
66946;SDS011;53853;51.982;5.928;2022-12-26T12:49:57;7.80;;;1.92;;
66946;SDS011;53853;51.982;5.928;2022-12-26T12:52:38;8.32;;;2.30;;
66946;SDS011;53853;51.982;5.928;2022-12-26T12:55:18;9.20;;;3.22;;
66946;SDS011;53853;51.982;5.928;2022-12-26T12:58:13;3.13;;;1.33;;
66946;SDS011;53853;51.982;5.928;2022-12-26T13:00:54;8.48;;;2.25;;
66946;SDS011;53853;51.982;5.928;2022-12-26T13:03:32;8.15;;;2.08;;
66946;SDS011;53853;51.982;5.928;2022-12-26T13:06:07;8.43;;;2.80;;
66946;SDS011;53853;51.982;5.928;2022-12-26T13:08:42;7.28;;;2.67;;
66946;SDS011;53853;51.982;5.928;2022-12-26T13:11:19;8.38;;;2.10;;
66946;SDS011;53853;51.982;5.928;2022-12-26T13:13:55;6.53;;;1.80;;
66946;SDS011;53853;51.982;5.928;2022-12-26T13:16:30;10.63;;;3.63;;
66946;SDS011;53853;51.982;5.928;2022-12-26T13:19:12;4.47;;;1.88;;
66946;SDS011;53853;51.982;5.928;2022-12-26T13:21:51;6.05;;;1.92;;
66946;SDS011;53853;51.982;5.928;2022-12-26T13:24:27;6.75;;;2.90;;
66946;SDS011;53853;51.982;5.928;2022-12-26T13:27:00;5.25;;;1.77;;
66946;SDS011;53853;51.982;5.928;2022-12-26T13:29:38;7.60;;;1.98;;
66946;SDS011;53853;51.982;5.928;2022-12-26T13:32:15;11.13;;;2.38;;
66946;SDS011;53853;51.982;5.928;2022-12-26T13:34:51;8.70;;;2.53;;
66946;SDS011;53853;51.982;5.928;2022-12-26T13:40:23;8.27;;;2.00;;
66946;SDS011;53853;51.982;5.928;2022-12-26T13:42:59;6.88;;;2.50;;
66946;SDS011;53853;51.982;5.928;2022-12-26T13:45:48;7.72;;;2.33;;
66946;SDS011;53853;51.982;5.928;2022-12-26T13:51:38;7.28;;;2.42;;
66946;SDS011;53853;51.982;5.928;2022-12-26T13:54:12;4.72;;;1.92;;
66946;SDS011;53853;51.982;5.928;2022-12-26T13:59:45;8.77;;;1.85;;
66946;SDS011;53853;51.982;5.928;2022-12-26T14:05:56;8.38;;;2.13;;
66946;SDS011;53853;51.982;5.928;2022-12-26T14:08:56;7.25;;;1.80;;
66946;SDS011;53853;51.982;5.928;2022-12-26T14:11:48;6.90;;;1.85;;
66946;SDS011;53853;51.982;5.928;2022-12-26T14:14:30;5.40;;;1.83;;
66946;SDS011;53853;51.982;5.928;2022-12-26T14:17:18;4.43;;;2.05;;
66946;SDS011;53853;51.982;5.928;2022-12-26T14:19:56;6.18;;;1.70;;
66946;SDS011;53853;51.982;5.928;2022-12-26T14:22:38;6.63;;;1.85;;
66946;SDS011;53853;51.982;5.928;2022-12-26T14:25:21;7.10;;;1.67;;
66946;SDS011;53853;51.982;5.928;2022-12-26T14:27:55;7.38;;;2.20;;
66946;SDS011;53853;51.982;5.928;2022-12-26T14:30:31;6.55;;;1.73;;
66946;SDS011;53853;51.982;5.928;2022-12-26T14:33:21;4.57;;;1.45;;
66946;SDS011;53853;51.982;5.928;2022-12-26T14:36:00;4.60;;;1.52;;
66946;SDS011;53853;51.982;5.928;2022-12-26T14:38:44;4.93;;;1.50;;
66946;SDS011;53853;51.982;5.928;2022-12-26T14:41:22;6.97;;;2.13;;
66946;SDS011;53853;51.982;5.928;2022-12-26T14:44:08;5.95;;;1.65;;
66946;SDS011;53853;51.982;5.928;2022-12-26T14:46:58;5.63;;;2.03;;
66946;SDS011;53853;51.982;5.928;2022-12-26T14:49:37;9.60;;;2.90;;
66946;SDS011;53853;51.982;5.928;2022-12-26T15:03:59;4.60;;;2.05;;
66946;SDS011;53853;51.982;5.928;2022-12-26T15:09:47;8.30;;;2.90;;
66946;SDS011;53853;51.982;5.928;2022-12-26T15:15:49;5.78;;;2.63;;
66946;SDS011;53853;51.982;5.928;2022-12-26T15:21:41;6.85;;;2.67;;
66946;SDS011;53853;51.982;5.928;2022-12-26T15:24:51;10.05;;;2.78;;
66946;SDS011;53853;51.982;5.928;2022-12-26T15:27:47;7.47;;;2.60;;
66946;SDS011;53853;51.982;5.928;2022-12-26T15:30:54;9.55;;;3.13;;
66946;SDS011;53853;51.982;5.928;2022-12-26T15:33:45;9.93;;;2.75;;
66946;SDS011;53853;51.982;5.928;2022-12-26T15:36:21;6.18;;;2.67;;
66946;SDS011;53853;51.982;5.928;2022-12-26T15:39:00;10.40;;;4.72;;
66946;SDS011;53853;51.982;5.928;2022-12-26T15:41:42;6.05;;;2.55;;
66946;SDS011;53853;51.982;5.928;2022-12-26T15:44:18;8.20;;;3.78;;
66946;SDS011;53853;51.982;5.928;2022-12-26T15:47:01;12.57;;;3.60;;
66946;SDS011;53853;51.982;5.928;2022-12-26T15:49:44;7.93;;;3.15;;
66946;SDS011;53853;51.982;5.928;2022-12-26T15:52:28;9.95;;;2.92;;
66946;SDS011;53853;51.982;5.928;2022-12-26T15:55:14;7.90;;;3.10;;
66946;SDS011;53853;51.982;5.928;2022-12-26T15:57:58;7.30;;;2.78;;
66946;SDS011;53853;51.982;5.928;2022-12-26T16:00:38;12.43;;;3.67;;
66946;SDS011;53853;51.982;5.928;2022-12-26T16:03:28;11.18;;;3.10;;
66946;SDS011;53853;51.982;5.928;2022-12-26T16:06:13;8.90;;;2.92;;
66946;SDS011;53853;51.982;5.928;2022-12-26T16:09:10;8.95;;;2.72;;
66946;SDS011;53853;51.982;5.928;2022-12-26T16:11:53;10.93;;;2.60;;
66946;SDS011;53853;51.982;5.928;2022-12-26T16:14:29;8.95;;;2.30;;
66946;SDS011;53853;51.982;5.928;2022-12-26T16:19:51;9.57;;;3.25;;
66946;SDS011;53853;51.982;5.928;2022-12-26T16:22:32;9.73;;;2.85;;
66946;SDS011;53853;51.982;5.928;2022-12-26T16:25:12;6.72;;;2.75;;
66946;SDS011;53853;51.982;5.928;2022-12-26T16:27:44;14.88;;;2.90;;
66946;SDS011;53853;51.982;5.928;2022-12-26T16:30:19;8.63;;;2.70;;
66946;SDS011;53853;51.982;5.928;2022-12-26T16:32:51;9.68;;;2.97;;
66946;SDS011;53853;51.982;5.928;2022-12-26T16:35:25;7.65;;;2.40;;